createdAt,value
2018-09-22T00:04:20.631Z,11.88
2018-09-22T00:14:20.781Z,11.77
2018-09-22T00:24:20.781Z,11.63
2018-09-22T00:34:20.738Z,11.44
2018-09-22T00:44:20.623Z,11.45
2018-09-22T00:54:20.717Z,11.43
2018-09-22T01:04:20.662Z,11.37
2018-09-22T01:14:20.664Z,11.38
2018-09-22T01:24:20.639Z,11.36
2018-09-22T01:34:20.688Z,11.19
2018-09-22T01:44:20.548Z,11.12
2018-09-22T01:54:21.208Z,11.13
2018-09-22T02:04:20.649Z,11.16
2018-09-22T02:14:20.608Z,11.01
2018-09-22T02:24:21.330Z,10.98
2018-09-22T02:34:20.607Z,10.95
2018-09-22T02:44:20.609Z,10.92
2018-09-22T02:54:20.676Z,10.85
2018-09-22T03:04:20.651Z,10.79
2018-09-22T03:14:20.648Z,10.70
2018-09-22T03:24:20.545Z,10.68
2018-09-22T03:34:20.888Z,10.69
2018-09-22T03:44:20.727Z,10.73
2018-09-22T03:54:20.639Z,10.69
2018-09-22T04:04:20.627Z,10.69
2018-09-22T04:14:20.627Z,10.71
2018-09-22T04:24:21.505Z,10.72
2018-09-22T04:34:20.781Z,10.72
2018-09-22T04:44:20.597Z,10.70
2018-09-22T04:54:20.636Z,10.67
2018-09-22T05:04:20.615Z,10.54
2018-09-22T05:14:20.819Z,10.40
2018-09-22T05:24:20.658Z,10.30
2018-09-22T05:34:20.607Z,10.36
2018-09-22T05:44:20.578Z,10.40
2018-09-22T05:54:22.895Z,10.42
2018-09-22T06:04:20.623Z,10.65
2018-09-22T06:14:20.648Z,10.85
2018-09-22T06:24:20.563Z,10.89
2018-09-22T06:34:20.741Z,10.94
2018-09-22T06:44:20.540Z,11.08
2018-09-22T06:54:20.604Z,11.40
2018-09-22T07:04:20.596Z,11.74
2018-09-22T07:14:20.487Z,12.66
2018-09-22T07:24:20.635Z,12.75
2018-09-22T07:34:20.627Z,13.13
2018-09-22T07:44:20.568Z,13.57
2018-09-22T07:54:20.627Z,14.38
2018-09-22T08:04:21.538Z,15.58
2018-09-22T08:14:20.554Z,15.00
2018-09-22T08:24:20.643Z,14.27
2018-09-22T08:34:20.650Z,13.81
2018-09-22T08:44:20.504Z,13.31
2018-09-22T08:54:20.621Z,13.11
2018-09-22T09:04:20.535Z,15.45
2018-09-22T09:14:20.623Z,16.57
2018-09-22T09:24:20.632Z,17.67
2018-09-22T09:34:20.575Z,19.13
2018-09-22T09:44:20.718Z,18.02
2018-09-22T09:54:20.632Z,15.60
2018-09-22T10:04:20.652Z,17.68
2018-09-22T10:14:20.634Z,17.01
2018-09-22T10:24:20.650Z,18.13
2018-09-22T10:34:20.658Z,18.36
2018-09-22T10:44:20.763Z,17.44
2018-09-22T10:54:20.642Z,17.68
2018-09-22T11:04:20.650Z,17.28
2018-09-22T11:14:20.718Z,17.76
2018-09-22T11:24:20.653Z,17.29
2018-09-22T11:34:20.671Z,16.61
2018-09-22T11:44:20.668Z,18.57
2018-09-22T11:54:20.617Z,17.91
2018-09-22T12:04:20.499Z,16.54
2018-09-22T12:14:20.620Z,15.96
2018-09-22T12:24:20.608Z,14.81
2018-09-22T12:34:21.362Z,15.41
2018-09-22T12:44:20.597Z,14.50
2018-09-22T12:54:20.635Z,12.27
2018-09-22T13:04:20.586Z,12.04
2018-09-22T13:14:20.881Z,12.03
2018-09-22T13:24:20.647Z,11.84
2018-09-22T13:34:20.653Z,12.04
2018-09-22T13:44:20.672Z,12.23
2018-09-22T13:54:20.605Z,12.17
2018-09-22T14:04:20.599Z,12.03
2018-09-22T14:14:20.626Z,11.89
2018-09-22T14:24:20.821Z,11.98
2018-09-22T14:34:20.626Z,12.34
2018-09-22T14:44:20.744Z,12.97
2018-09-22T14:54:20.607Z,12.21
2018-09-22T15:04:20.664Z,12.18
2018-09-22T15:14:20.650Z,12.48
2018-09-22T15:24:20.584Z,12.20
2018-09-22T15:34:20.638Z,12.22
2018-09-22T15:44:20.664Z,12.10
2018-09-22T15:54:20.713Z,11.85
2018-09-22T16:04:20.564Z,11.79
2018-09-22T16:14:21.688Z,11.69
2018-09-22T16:24:21.242Z,11.58
2018-09-22T16:34:20.623Z,11.37
2018-09-22T16:44:20.642Z,11.36
2018-09-22T16:54:20.635Z,11.14
2018-09-22T17:04:21.777Z,11.10
2018-09-22T17:14:20.579Z,10.99
2018-09-22T17:24:20.590Z,10.94
2018-09-22T17:34:20.631Z,10.91
2018-09-22T17:44:20.591Z,10.83
2018-09-22T17:54:20.581Z,10.87
2018-09-22T18:04:20.663Z,10.76
2018-09-22T18:14:20.619Z,10.73
2018-09-22T18:24:20.649Z,10.78
2018-09-22T18:34:20.639Z,10.80
2018-09-22T18:44:20.601Z,10.77
2018-09-22T18:54:20.560Z,10.77
2018-09-22T19:04:20.745Z,10.71
2018-09-22T19:14:20.585Z,10.65
2018-09-22T19:24:20.672Z,10.67
2018-09-22T19:34:20.626Z,10.71
2018-09-22T19:44:20.629Z,10.74
2018-09-22T19:54:20.587Z,10.81
2018-09-22T20:04:20.850Z,10.70
2018-09-22T20:14:20.592Z,10.74
2018-09-22T20:24:20.641Z,10.75
2018-09-22T20:34:20.779Z,10.72
2018-09-22T20:44:20.704Z,10.85
2018-09-22T20:54:20.703Z,10.81
2018-09-22T21:04:20.652Z,10.89
2018-09-22T21:14:20.734Z,10.85
2018-09-22T21:24:20.663Z,10.95
2018-09-22T21:34:20.588Z,10.95
2018-09-22T21:44:20.607Z,10.93
2018-09-22T21:54:20.561Z,10.97
2018-09-22T22:04:20.672Z,10.92
2018-09-22T22:14:20.654Z,10.93
2018-09-22T22:24:20.592Z,10.91
2018-09-22T22:34:20.641Z,10.89
2018-09-22T22:44:20.671Z,10.84
2018-09-22T22:54:20.656Z,10.95
2018-09-22T23:04:20.564Z,10.85
2018-09-22T23:14:20.558Z,10.97
2018-09-22T23:24:20.664Z,10.93
2018-09-22T23:34:20.672Z,10.88
2018-09-22T23:44:20.614Z,10.83
2018-09-22T23:54:20.585Z,10.75
